createdAt,value
2022-12-11T00:00:20.158Z,92568.84
2022-12-11T00:03:23.290Z,92574.44
2022-12-11T00:06:26.438Z,92575.78
2022-12-11T00:09:29.876Z,92570.06
2022-12-11T00:12:33.048Z,92564.06
2022-12-11T00:15:36.127Z,92569.13
2022-12-11T00:18:39.491Z,92574.06
2022-12-11T00:21:42.997Z,92566.84
2022-12-11T00:24:46.076Z,92559.78
2022-12-11T00:27:49.141Z,92552.69
2022-12-11T00:30:55.100Z,92550.84
2022-12-11T00:33:58.436Z,92548.44
2022-12-11T00:37:01.541Z,92555.09
2022-12-11T00:40:05.243Z,92553.25
2022-12-11T00:43:08.427Z,92554.44
2022-12-11T00:46:12.603Z,92538.34
2022-12-11T00:49:15.679Z,92540.22
2022-12-11T00:52:18.765Z,92542.19
2022-12-11T00:55:21.904Z,92549.38
2022-12-11T00:58:25.046Z,92551.53
2022-12-11T01:01:28.147Z,92550.63
2022-12-11T01:04:31.391Z,92548.72
2022-12-11T01:07:34.533Z,92540.84
2022-12-11T01:10:37.719Z,92538.19
2022-12-11T01:13:41.850Z,92532.72
2022-12-11T01:16:45.128Z,92536.88
2022-12-11T01:19:48.379Z,92536.88
2022-12-11T01:22:58.942Z,92538.63
2022-12-11T01:26:16.106Z,92533.56
2022-12-11T01:29:19.234Z,92527.25
2022-12-11T01:32:22.407Z,92520.50
2022-12-11T01:35:25.616Z,92520.63
2022-12-11T01:38:28.690Z,92518.25
2022-12-11T01:41:31.841Z,92514.66
2022-12-11T01:44:34.871Z,92519.03
2022-12-11T01:47:37.966Z,92514.22
2022-12-11T01:50:45.942Z,92509.69
2022-12-11T01:53:55.072Z,92503.44
2022-12-11T01:57:03.764Z,92502.91
2022-12-11T02:00:07.416Z,92502.47
2022-12-11T02:03:15.765Z,92509.41
2022-12-11T02:06:47.411Z,92511.69
2022-12-11T02:09:50.985Z,92516.09
2022-12-11T02:13:13.906Z,92514.22
2022-12-11T02:16:33.946Z,92514.13
2022-12-11T02:19:56.306Z,92498.66
2022-12-11T02:23:05.625Z,92496.00
2022-12-11T02:26:34.944Z,92502.03
2022-12-11T02:29:51.838Z,92489.88
2022-12-11T02:32:57.678Z,92499.09
2022-12-11T02:36:04.058Z,92497.75
2022-12-11T02:39:09.872Z,92495.72
2022-12-11T02:42:14.766Z,92494.78
2022-12-11T02:45:20.277Z,92492.78
2022-12-11T02:48:25.054Z,92487.31
2022-12-11T02:51:33.059Z,92487.00
2022-12-11T02:54:40.101Z,92481.38
2022-12-11T02:57:53.722Z,92486.44
2022-12-11T03:00:56.916Z,92485.22
2022-12-11T03:04:00.197Z,92475.03
2022-12-11T03:07:17.936Z,92465.34
2022-12-11T03:10:21.316Z,92463.34
2022-12-11T03:13:24.994Z,92458.63
2022-12-11T03:16:37.025Z,92462.44
2022-12-11T03:19:53.537Z,92455.31
2022-12-11T03:23:10.246Z,92453.28
2022-12-11T03:26:17.451Z,92449.47
2022-12-11T03:29:41.998Z,92446.53
2022-12-11T03:32:58.746Z,92434.41
2022-12-11T03:36:15.365Z,92429.59
2022-12-11T03:39:28.290Z,92419.91
2022-12-11T03:42:32.735Z,92410.22
2022-12-11T03:45:38.042Z,92406.75
2022-12-11T03:48:45.354Z,92402.03
2022-12-11T03:51:51.143Z,92403.47
2022-12-11T03:54:58.883Z,92393.34
2022-12-11T03:58:02.106Z,92399.00
2022-12-11T04:01:09.583Z,92384.06
2022-12-11T04:04:12.695Z,92382.41
2022-12-11T04:07:15.896Z,92374.97
2022-12-11T04:10:18.948Z,92370.91
2022-12-11T04:13:22.046Z,92375.09
2022-12-11T04:16:25.129Z,92361.38
2022-12-11T04:19:46.685Z,92363.00
2022-12-11T04:23:08.013Z,92361.78
2022-12-11T04:26:14.874Z,92359.75
2022-12-11T04:29:17.968Z,92362.31
2022-12-11T04:32:21.050Z,92359.75
2022-12-11T04:35:24.476Z,92355.78
2022-12-11T06:06:59.485Z,92191.91
2022-12-11T06:10:02.556Z,92184.50
2022-12-11T06:13:05.603Z,92188.19
2022-12-11T06:16:09.965Z,92184.16
2022-12-11T06:19:15.920Z,92187.25
2022-12-11T06:22:18.983Z,92175.44
2022-12-11T06:25:22.193Z,92170.81
2022-12-11T06:28:25.189Z,92169.28
2022-12-11T06:31:28.563Z,92157.69
2022-12-11T06:34:31.785Z,92155.06
2022-12-11T06:37:37.365Z,92149.09
2022-12-11T06:40:41.267Z,92152.09
2022-12-11T06:43:44.783Z,92150.69
2022-12-11T06:46:47.828Z,92150.47
2022-12-11T06:49:50.866Z,92130.00
2022-12-11T06:52:53.931Z,92139.44
2022-12-11T06:55:56.993Z,92134.78
2022-12-11T06:59:05.695Z,92124.59
2022-12-11T07:02:15.286Z,92131.50
2022-12-11T07:05:18.544Z,92123.09
2022-12-11T07:08:21.818Z,92114.81
2022-12-11T07:11:25.000Z,92108.84
2022-12-11T07:14:28.063Z,92107.50
2022-12-11T07:17:31.717Z,92102.97
2022-12-11T07:20:34.815Z,92096.38
2022-12-11T07:23:38.452Z,92099.94
2022-12-11T07:26:41.548Z,92095.34
2022-12-11T07:29:45.670Z,92088.72
2022-12-11T07:32:48.789Z,92080.66
2022-12-11T07:35:51.917Z,92078.41
2022-12-11T07:38:55.161Z,92074.13
2022-12-11T07:41:58.368Z,92069.25
2022-12-11T07:45:01.562Z,92077.06
2022-12-11T07:48:04.876Z,92070.84
2022-12-11T07:51:11.326Z,92067.66
2022-12-11T07:54:17.437Z,92059.34
2022-12-11T07:57:20.557Z,92056.09
2022-12-11T08:00:23.731Z,92062.47
2022-12-11T08:03:26.835Z,92058.28
2022-12-11T08:06:32.336Z,92048.25
2022-12-11T08:09:35.421Z,92049.09
2022-12-11T08:12:38.394Z,92048.03
2022-12-11T08:15:41.486Z,92041.63
2022-12-11T08:18:46.658Z,92038.66
2022-12-11T08:21:49.723Z,92042.75
2022-12-11T08:24:53.103Z,92038.91
2022-12-11T08:27:56.201Z,92036.72
2022-12-11T08:30:59.685Z,92039.38
2022-12-11T08:34:02.816Z,92029.91
2022-12-11T08:37:05.917Z,92024.03
2022-12-11T08:40:10.510Z,92030.19
2022-12-11T08:43:13.771Z,92032.63
2022-12-11T08:46:16.854Z,92022.69
2022-12-11T08:49:19.954Z,92033.63
2022-12-11T08:52:23.575Z,92027.16
2022-12-11T08:55:26.664Z,92021.94
2022-12-11T08:58:30.395Z,92020.84
2022-12-11T09:01:33.697Z,92020.72
2022-12-11T09:04:36.783Z,92017.63
2022-12-11T09:07:40.064Z,92024.25
2022-12-11T09:10:43.123Z,92026.00
2022-12-11T09:13:46.295Z,92015.09
2022-12-11T09:16:49.371Z,92011.34
2022-12-11T09:19:52.567Z,92007.25
2022-12-11T09:22:55.612Z,92006.72
2022-12-11T09:25:59.954Z,92001.38
2022-12-11T09:29:05.099Z,92008.13
2022-12-11T09:32:08.310Z,92002.41
2022-12-11T09:35:12.016Z,91994.78
2022-12-11T09:38:15.366Z,92002.16
2022-12-11T09:41:27.167Z,91993.69
2022-12-11T09:44:54.661Z,91996.09
2022-12-11T09:47:58.163Z,91989.09
2022-12-11T09:51:09.056Z,91987.75
2022-12-11T09:54:14.784Z,91991.94
2022-12-11T09:57:39.422Z,91984.00
2022-12-11T10:00:51.755Z,91976.06
2022-12-11T10:04:53.277Z,91976.47
2022-12-11T10:08:07.000Z,91974.00
2022-12-11T10:11:34.159Z,91968.47
2022-12-11T10:14:58.676Z,91960.69
2022-12-11T10:18:05.206Z,91969.53
2022-12-11T10:21:09.993Z,91967.28
2022-12-11T10:24:34.876Z,91961.06
2022-12-11T10:27:42.629Z,91959.75
2022-12-11T10:31:06.104Z,91948.84
2022-12-11T10:34:34.036Z,91945.41
2022-12-11T10:37:37.160Z,91943.09
2022-12-11T10:40:47.040Z,91939.53
2022-12-11T10:43:53.140Z,91936.53
2022-12-11T10:47:02.563Z,91928.00
2022-12-11T10:50:06.203Z,91923.81
2022-12-11T10:53:21.908Z,91926.00
2022-12-11T10:56:34.145Z,91922.78
2022-12-11T10:59:47.199Z,91918.91
2022-12-11T11:02:50.353Z,91919.38
2022-12-11T11:06:06.798Z,91917.41
2022-12-11T11:09:36.545Z,91922.25
2022-12-11T11:12:42.650Z,91917.56
2022-12-11T11:15:46.351Z,91924.41
2022-12-11T11:18:58.820Z,91918.38
2022-12-11T11:22:13.499Z,91916.16
2022-12-11T11:25:20.553Z,91916.59
2022-12-11T11:28:28.605Z,91910.88
2022-12-11T11:31:35.377Z,91909.53
2022-12-11T11:34:38.497Z,91909.66
2022-12-11T11:37:45.521Z,91908.53
2022-12-11T11:41:14.683Z,91908.72
2022-12-11T11:44:25.877Z,91908.72
2022-12-11T11:47:37.224Z,91908.06
2022-12-11T11:50:45.552Z,91904.69
2022-12-11T11:53:52.492Z,91897.63
2022-12-11T11:56:58.230Z,91896.28
2022-12-11T12:00:11.727Z,91900.41
2022-12-11T12:03:20.925Z,91900.09
2022-12-11T12:06:50.540Z,91904.59
2022-12-11T12:10:15.639Z,91909.13
2022-12-11T12:13:49.057Z,91898.88
2022-12-11T12:17:17.861Z,91902.53
2022-12-11T12:20:33.109Z,91910.59
2022-12-11T12:23:42.304Z,91900.78
2022-12-11T12:26:57.436Z,91901.34
2022-12-11T12:30:06.108Z,91910.81
2022-12-11T12:33:14.984Z,91906.94
2022-12-11T12:36:37.046Z,91911.25
2022-12-11T12:39:43.250Z,91904.88
2022-12-11T12:42:49.294Z,91898.34
2022-12-11T12:46:32.834Z,91894.38
2022-12-11T12:49:46.875Z,91892.41
2022-12-11T12:52:51.968Z,91887.31
2022-12-11T12:55:56.208Z,91893.41
2022-12-11T12:58:59.420Z,91895.75
2022-12-11T13:02:05.411Z,91887.56
2022-12-11T13:05:31.594Z,91876.66
2022-12-11T13:08:48.964Z,91876.31
2022-12-11T13:11:55.626Z,91876.31
2022-12-11T13:14:58.806Z,91873.59
2022-12-11T13:18:05.192Z,91873.69
2022-12-11T13:21:31.921Z,91875.00
2022-12-11T13:24:35.733Z,91866.84
2022-12-11T13:27:41.418Z,91865.84
2022-12-11T13:30:44.571Z,91861.53
2022-12-11T13:33:51.690Z,91858.00
2022-12-11T13:36:55.507Z,91852.47
2022-12-11T13:39:59.763Z,91854.25
2022-12-11T13:43:06.864Z,91860.97
2022-12-11T13:46:14.238Z,91853.91
2022-12-11T13:49:27.363Z,91855.88
2022-12-11T13:52:33.289Z,91842.31
2022-12-11T13:55:36.354Z,91849.56
2022-12-11T13:58:40.706Z,91854.28
2022-12-11T14:01:43.865Z,91848.88
2022-12-11T14:04:50.459Z,91846.44
2022-12-11T14:07:56.975Z,91848.41
2022-12-11T14:11:00.500Z,91848.50
2022-12-11T14:14:07.059Z,91844.44
2022-12-11T14:17:30.320Z,91846.78
2022-12-11T14:20:35.089Z,91844.31
2022-12-11T14:23:38.836Z,91843.97
2022-12-11T14:26:51.491Z,91840.16
2022-12-11T14:29:55.099Z,91839.47
2022-12-11T14:33:03.724Z,91852.56
2022-12-11T14:36:08.570Z,91855.56
2022-12-11T14:39:25.502Z,91847.09
2022-12-11T14:42:33.506Z,91847.00
2022-12-11T14:45:47.806Z,91847.66
2022-12-11T14:49:02.679Z,91854.91
2022-12-11T14:52:05.849Z,91855.22
2022-12-11T14:55:11.648Z,91861.31
2022-12-11T14:58:27.265Z,91868.25
2022-12-11T15:01:33.597Z,91854.91
2022-12-11T15:04:36.781Z,91852.56
2022-12-11T15:07:42.021Z,91853.69
2022-12-11T15:11:05.575Z,91862.53
2022-12-11T15:14:13.086Z,91871.34
2022-12-11T15:17:16.448Z,91872.34
2022-12-11T15:20:29.037Z,91874.22
2022-12-11T15:23:32.340Z,91887.56
2022-12-11T15:26:47.547Z,91877.97
2022-12-11T15:29:50.760Z,91879.84
2022-12-11T15:33:31.059Z,91880.50
2022-12-11T15:36:37.959Z,91879.28
2022-12-11T15:39:42.068Z,91883.16
2022-12-11T15:42:45.155Z,91885.22
2022-12-11T15:45:48.402Z,91881.69
2022-12-11T15:48:51.749Z,91876.25
2022-12-11T15:51:55.245Z,91882.09
2022-12-11T15:54:58.302Z,91878.22
2022-12-11T15:58:07.715Z,91877.75
2022-12-11T16:01:10.973Z,91873.81
2022-12-11T16:04:14.103Z,91876.44
2022-12-11T16:07:20.654Z,91870.06
2022-12-11T16:10:23.695Z,91877.09
2022-12-11T16:13:27.126Z,91872.03
2022-12-11T16:16:30.186Z,91866.19
2022-12-11T16:19:33.554Z,91872.91
2022-12-11T16:22:37.173Z,91855.56
2022-12-11T16:25:42.498Z,91865.53
2022-12-11T16:28:45.617Z,91862.03
2022-12-11T16:31:49.110Z,91853.66
2022-12-11T16:34:52.278Z,91852.19
2022-12-11T16:37:55.510Z,91851.78
2022-12-11T16:41:02.423Z,91852.22
2022-12-11T16:44:05.941Z,91857.84
2022-12-11T16:47:09.092Z,91849.13
2022-12-11T16:50:15.700Z,91847.59
2022-12-11T16:53:18.864Z,91847.09
2022-12-11T16:56:22.033Z,91854.13
2022-12-11T16:59:25.160Z,91847.75
2022-12-11T17:02:28.827Z,91861.56
2022-12-11T17:05:31.909Z,91860.34
2022-12-11T17:08:35.069Z,91860.44
2022-12-11T17:11:38.376Z,91860.78
2022-12-11T17:14:41.492Z,91861.59
2022-12-11T17:17:44.763Z,91859.50
2022-12-11T17:20:47.918Z,91863.25
2022-12-11T17:23:51.796Z,91861.50
2022-12-11T17:26:56.417Z,91861.84
2022-12-11T17:29:59.515Z,91858.19
2022-12-11T17:33:03.486Z,91857.97
2022-12-11T17:36:08.584Z,91860.50
2022-12-11T17:39:11.704Z,91854.09
2022-12-11T17:42:14.928Z,91862.63
2022-12-11T17:45:18.334Z,91867.94
2022-12-11T17:48:24.699Z,91869.59
2022-12-11T17:51:28.002Z,91864.81
2022-12-11T17:54:31.067Z,91871.69
2022-12-11T17:57:35.071Z,91871.91
2022-12-11T18:00:40.713Z,91880.72
2022-12-11T18:03:43.859Z,91868.31
2022-12-11T18:06:46.930Z,91857.94
2022-12-11T18:09:49.986Z,91855.75
2022-12-11T18:12:53.701Z,91856.28
2022-12-11T18:16:08.865Z,91868.00
2022-12-11T18:19:12.045Z,91851.56
2022-12-11T18:22:15.078Z,91869.50
2022-12-11T18:25:18.584Z,91868.19
2022-12-11T18:28:22.089Z,91878.66
2022-12-11T18:31:25.615Z,91882.28
2022-12-11T18:34:28.764Z,91875.22
2022-12-11T18:37:32.304Z,91877.22
2022-12-11T18:40:36.999Z,91880.59
2022-12-11T18:43:40.233Z,91882.16
2022-12-11T18:46:43.380Z,91888.84
2022-12-11T18:49:46.404Z,91886.63
2022-12-11T18:52:53.975Z,91892.53
2022-12-11T18:56:00.336Z,91890.44
2022-12-11T18:59:05.232Z,91899.00
2022-12-11T19:02:08.576Z,91895.59
2022-12-11T19:05:12.560Z,91901.06
2022-12-11T19:08:16.994Z,91885.97
2022-12-11T19:11:25.176Z,91890.88
2022-12-11T19:14:28.273Z,91892.41
2022-12-11T19:17:31.406Z,91885.34
2022-12-11T19:20:49.162Z,91894.34
2022-12-11T19:23:53.236Z,91895.97
2022-12-11T19:26:56.374Z,91888.78
2022-12-11T19:30:00.886Z,91890.69
2022-12-11T19:33:03.976Z,91901.50
2022-12-11T19:36:10.648Z,91898.06
2022-12-11T19:39:15.000Z,91898.13
2022-12-11T19:42:18.244Z,91895.25
2022-12-11T19:45:21.315Z,91899.63
2022-12-11T19:48:24.327Z,91899.47
2022-12-11T19:51:39.935Z,91895.81
2022-12-11T19:54:43.067Z,91899.94
2022-12-11T19:57:46.347Z,91894.09
2022-12-11T20:00:49.596Z,91895.06
2022-12-11T20:03:58.255Z,91906.56
2022-12-11T20:07:01.320Z,91900.44
2022-12-11T20:10:04.623Z,91904.84
2022-12-11T20:13:07.692Z,91905.38
2022-12-11T20:16:12.127Z,91913.91
2022-12-11T20:19:15.622Z,91904.50
2022-12-11T20:22:18.704Z,91916.31
2022-12-11T20:25:22.322Z,91899.28
2022-12-11T20:28:25.751Z,91914.88
2022-12-11T20:31:28.957Z,91918.75
2022-12-11T20:34:32.175Z,91927.50
2022-12-11T20:37:35.710Z,91929.91
2022-12-11T20:40:41.023Z,91922.84
2022-12-11T20:43:44.561Z,91914.63
2022-12-11T20:46:47.722Z,91928.31
2022-12-11T20:49:52.563Z,91926.59
2022-12-11T20:52:55.581Z,91926.59
2022-12-11T20:55:58.769Z,91939.09
2022-12-11T20:59:01.909Z,91942.81
2022-12-11T21:02:06.163Z,91945.34
2022-12-11T21:05:09.465Z,91947.25
2022-12-11T21:08:13.336Z,91948.00
2022-12-11T21:11:16.487Z,91946.84
2022-12-11T21:14:20.652Z,91941.00
2022-12-11T21:17:23.451Z,91922.13
2022-12-11T21:20:26.707Z,91933.00
2022-12-11T21:23:29.809Z,91936.06
2022-12-11T21:26:32.996Z,91928.63
2022-12-11T21:29:36.436Z,91917.19
2022-12-11T21:32:39.684Z,91921.97
2022-12-11T21:35:42.936Z,91925.66
2022-12-11T21:38:46.941Z,91924.09
2022-12-11T21:41:50.122Z,91942.81
2022-12-11T21:48:16.447Z,91943.97
2022-12-11T21:51:35.733Z,91937.31
2022-12-11T21:54:40.240Z,91951.25
2022-12-11T21:57:43.414Z,91954.19
2022-12-11T22:00:46.722Z,91947.63
2022-12-11T22:03:51.054Z,91955.34
2022-12-11T22:06:54.047Z,91958.28
2022-12-11T22:09:58.622Z,91952.56
2022-12-11T22:13:01.665Z,91958.03
2022-12-11T22:16:05.019Z,91958.44
2022-12-11T22:19:08.075Z,91961.88
2022-12-11T22:22:11.428Z,91974.75
2022-12-11T22:25:15.057Z,91969.84
2022-12-11T22:28:18.513Z,91976.03
2022-12-11T22:31:23.985Z,91983.06
2022-12-11T22:34:27.209Z,91986.91
2022-12-11T22:37:30.356Z,91984.56
2022-12-11T22:40:34.743Z,91980.47
2022-12-11T22:43:38.004Z,91998.47
2022-12-11T22:46:43.124Z,91999.63
2022-12-11T22:49:49.868Z,91997.09
2022-12-11T22:52:52.933Z,92009.69
2022-12-11T22:55:56.034Z,92008.47
2022-12-11T22:58:59.933Z,92008.56
2022-12-11T23:02:03.322Z,92016.72
2022-12-11T23:05:07.122Z,92013.63
2022-12-11T23:08:10.288Z,92005.63
2022-12-11T23:11:16.150Z,92011.22
2022-12-11T23:14:20.215Z,92016.78
2022-12-11T23:17:23.295Z,92012.25
2022-12-11T23:20:26.389Z,92017.97
2022-12-11T23:23:29.852Z,92016.34
2022-12-11T23:26:33.622Z,92023.31
2022-12-11T23:29:36.987Z,92025.19
2022-12-11T23:32:40.124Z,92025.56
2022-12-11T23:35:43.339Z,92033.03
2022-12-11T23:38:52.603Z,92036.81
2022-12-11T23:41:57.587Z,92034.81
2022-12-11T23:45:00.592Z,92033.72
2022-12-11T23:48:03.672Z,92036.53
2022-12-11T23:51:08.294Z,92039.28
2022-12-11T23:54:11.364Z,92039.13
2022-12-11T23:57:14.347Z,92049.72
